sensor_id;sensor_type;location;lat;lon;timestamp;P1;durP1;ratioP1;P2;durP2;ratioP2
25163;SDS011;13440;50.860;13.662;2023-02-20T00:01:17;7.85;;;5.53;;
25163;SDS011;13440;50.860;13.662;2023-02-20T00:03:43;8.68;;;5.45;;
25163;SDS011;13440;50.860;13.662;2023-02-20T00:06:08;8.00;;;5.80;;
25163;SDS011;13440;50.860;13.662;2023-02-20T00:08:34;7.28;;;5.32;;
25163;SDS011;13440;50.860;13.662;2023-02-20T00:11:00;7.35;;;5.60;;
25163;SDS011;13440;50.860;13.662;2023-02-20T00:13:25;7.03;;;4.82;;
25163;SDS011;13440;50.860;13.662;2023-02-20T00:15:50;5.30;;;4.80;;
25163;SDS011;13440;50.860;13.662;2023-02-20T00:18:15;5.40;;;4.33;;
25163;SDS011;13440;50.860;13.662;2023-02-20T00:20:41;5.72;;;4.53;;
25163;SDS011;13440;50.860;13.662;2023-02-20T00:23:06;6.20;;;4.05;;
25163;SDS011;13440;50.860;13.662;2023-02-20T00:25:31;4.55;;;3.88;;
25163;SDS011;13440;50.860;13.662;2023-02-20T00:27:57;4.60;;;3.83;;
25163;SDS011;13440;50.860;13.662;2023-02-20T00:30:22;5.07;;;3.83;;
25163;SDS011;13440;50.860;13.662;2023-02-20T00:32:48;5.13;;;3.90;;
25163;SDS011;13440;50.860;13.662;2023-02-20T00:35:14;6.00;;;4.22;;
25163;SDS011;13440;50.860;13.662;2023-02-20T00:37:39;5.93;;;4.07;;
25163;SDS011;13440;50.860;13.662;2023-02-20T00:40:05;5.10;;;3.97;;
25163;SDS011;13440;50.860;13.662;2023-02-20T00:42:30;4.72;;;4.25;;
25163;SDS011;13440;50.860;13.662;2023-02-20T00:44:57;5.18;;;4.30;;
25163;SDS011;13440;50.860;13.662;2023-02-20T00:47:22;5.93;;;4.57;;
25163;SDS011;13440;50.860;13.662;2023-02-20T00:49:47;6.85;;;4.80;;
25163;SDS011;13440;50.860;13.662;2023-02-20T00:52:12;6.07;;;5.10;;
25163;SDS011;13440;50.860;13.662;2023-02-20T00:54:38;6.95;;;5.07;;
25163;SDS011;13440;50.860;13.662;2023-02-20T00:57:03;9.37;;;6.23;;
25163;SDS011;13440;50.860;13.662;2023-02-20T00:59:28;8.17;;;5.70;;
25163;SDS011;13440;50.860;13.662;2023-02-20T01:01:54;8.40;;;5.93;;
25163;SDS011;13440;50.860;13.662;2023-02-20T01:04:19;9.90;;;6.30;;
25163;SDS011;13440;50.860;13.662;2023-02-20T01:06:44;9.60;;;7.18;;
25163;SDS011;13440;50.860;13.662;2023-02-20T01:09:10;7.40;;;6.40;;
25163;SDS011;13440;50.860;13.662;2023-02-20T01:11:35;8.98;;;6.75;;
25163;SDS011;13440;50.860;13.662;2023-02-20T01:14:01;7.85;;;6.32;;
25163;SDS011;13440;50.860;13.662;2023-02-20T01:16:28;9.02;;;7.00;;
25163;SDS011;13440;50.860;13.662;2023-02-20T01:18:53;8.90;;;6.38;;
25163;SDS011;13440;50.860;13.662;2023-02-20T01:21:19;9.07;;;6.67;;
25163;SDS011;13440;50.860;13.662;2023-02-20T01:23:45;9.15;;;6.32;;
25163;SDS011;13440;50.860;13.662;2023-02-20T01:26:10;6.05;;;5.45;;
25163;SDS011;13440;50.860;13.662;2023-02-20T01:28:35;7.10;;;5.90;;
25163;SDS011;13440;50.860;13.662;2023-02-20T01:31:02;7.05;;;5.82;;
25163;SDS011;13440;50.860;13.662;2023-02-20T01:33:27;8.00;;;6.23;;
25163;SDS011;13440;50.860;13.662;2023-02-20T01:35:52;8.77;;;6.17;;
25163;SDS011;13440;50.860;13.662;2023-02-20T01:38:20;7.13;;;6.20;;
25163;SDS011;13440;50.860;13.662;2023-02-20T01:40:46;8.10;;;6.47;;
25163;SDS011;13440;50.860;13.662;2023-02-20T01:43:12;7.82;;;6.55;;
25163;SDS011;13440;50.860;13.662;2023-02-20T01:45:37;8.30;;;6.60;;
25163;SDS011;13440;50.860;13.662;2023-02-20T01:48:03;7.68;;;6.35;;
25163;SDS011;13440;50.860;13.662;2023-02-20T01:50:34;7.68;;;6.25;;
25163;SDS011;13440;50.860;13.662;2023-02-20T01:53:03;8.82;;;7.07;;
25163;SDS011;13440;50.860;13.662;2023-02-20T01:55:49;7.53;;;6.60;;
25163;SDS011;13440;50.860;13.662;2023-02-20T01:58:26;9.45;;;7.07;;
25163;SDS011;13440;50.860;13.662;2023-02-20T02:00:53;9.82;;;7.35;;
25163;SDS011;13440;50.860;13.662;2023-02-20T02:03:20;9.65;;;6.68;;
25163;SDS011;13440;50.860;13.662;2023-02-20T02:05:48;9.68;;;6.88;;
25163;SDS011;13440;50.860;13.662;2023-02-20T02:08:17;9.10;;;6.43;;
25163;SDS011;13440;50.860;13.662;2023-02-20T02:10:46;10.10;;;7.00;;
25163;SDS011;13440;50.860;13.662;2023-02-20T02:13:13;8.55;;;6.22;;
25163;SDS011;13440;50.860;13.662;2023-02-20T02:15:38;8.07;;;6.60;;
25163;SDS011;13440;50.860;13.662;2023-02-20T02:20:52;6.93;;;6.03;;
25163;SDS011;13440;50.860;13.662;2023-02-20T02:25:59;7.90;;;6.75;;
25163;SDS011;13440;50.860;13.662;2023-02-20T02:31:19;7.72;;;6.35;;
25163;SDS011;13440;50.860;13.662;2023-02-20T02:33:55;8.50;;;6.82;;
25163;SDS011;13440;50.860;13.662;2023-02-20T02:39:07;7.95;;;6.28;;
25163;SDS011;13440;50.860;13.662;2023-02-20T02:41:43;7.63;;;6.13;;
25163;SDS011;13440;50.860;13.662;2023-02-20T02:46:54;7.18;;;6.03;;
25163;SDS011;13440;50.860;13.662;2023-02-20T02:49:25;7.25;;;5.30;;
25163;SDS011;13440;50.860;13.662;2023-02-20T02:51:51;7.38;;;5.90;;
25163;SDS011;13440;50.860;13.662;2023-02-20T02:54:19;8.50;;;6.05;;
25163;SDS011;13440;50.860;13.662;2023-02-20T02:56:46;7.18;;;5.75;;
25163;SDS011;13440;50.860;13.662;2023-02-20T02:59:20;7.32;;;5.88;;
25163;SDS011;13440;50.860;13.662;2023-02-20T03:01:49;7.80;;;6.55;;
25163;SDS011;13440;50.860;13.662;2023-02-20T03:04:17;8.02;;;6.85;;
25163;SDS011;13440;50.860;13.662;2023-02-20T03:06:47;9.57;;;6.65;;
25163;SDS011;13440;50.860;13.662;2023-02-20T03:09:19;8.43;;;5.95;;
25163;SDS011;13440;50.860;13.662;2023-02-20T03:11:49;8.70;;;5.95;;
25163;SDS011;13440;50.860;13.662;2023-02-20T03:14:20;7.45;;;6.38;;
25163;SDS011;13440;50.860;13.662;2023-02-20T03:19:48;9.35;;;6.47;;
25163;SDS011;13440;50.860;13.662;2023-02-20T03:23:14;10.05;;;6.88;;
25163;SDS011;13440;50.860;13.662;2023-02-20T03:25:15;8.60;;;6.32;;
25163;SDS011;13440;50.860;13.662;2023-02-20T03:28:02;9.13;;;7.03;;
25163;SDS011;13440;50.860;13.662;2023-02-20T03:33:06;9.10;;;6.82;;
25163;SDS011;13440;50.860;13.662;2023-02-20T03:35:53;9.02;;;6.82;;
25163;SDS011;13440;50.860;13.662;2023-02-20T03:38:37;10.07;;;7.47;;
25163;SDS011;13440;50.860;13.662;2023-02-20T03:41:23;9.75;;;7.07;;
25163;SDS011;13440;50.860;13.662;2023-02-20T03:44:08;10.02;;;6.90;;
25163;SDS011;13440;50.860;13.662;2023-02-20T03:46:35;10.20;;;7.22;;
25163;SDS011;13440;50.860;13.662;2023-02-20T03:49:03;11.90;;;7.50;;
25163;SDS011;13440;50.860;13.662;2023-02-20T03:51:29;10.55;;;7.18;;
25163;SDS011;13440;50.860;13.662;2023-02-20T03:54:26;16.92;;;9.90;;
25163;SDS011;13440;50.860;13.662;2023-02-20T03:56:53;11.80;;;7.50;;
25163;SDS011;13440;50.860;13.662;2023-02-20T03:59:43;10.52;;;7.95;;
25163;SDS011;13440;50.860;13.662;2023-02-20T04:02:08;10.13;;;7.85;;
25163;SDS011;13440;50.860;13.662;2023-02-20T04:04:38;29.17;;;19.08;;
25163;SDS011;13440;50.860;13.662;2023-02-20T04:07:06;12.90;;;8.77;;
25163;SDS011;13440;50.860;13.662;2023-02-20T04:09:32;14.10;;;9.63;;
25163;SDS011;13440;50.860;13.662;2023-02-20T04:12:02;11.32;;;8.32;;
25163;SDS011;13440;50.860;13.662;2023-02-20T04:14:29;14.63;;;10.25;;
25163;SDS011;13440;50.860;13.662;2023-02-20T04:16:57;13.13;;;9.52;;
25163;SDS011;13440;50.860;13.662;2023-02-20T04:19:24;13.43;;;10.38;;
25163;SDS011;13440;50.860;13.662;2023-02-20T04:21:51;13.63;;;9.65;;
25163;SDS011;13440;50.860;13.662;2023-02-20T04:24:22;13.75;;;10.27;;
25163;SDS011;13440;50.860;13.662;2023-02-20T04:26:49;13.88;;;10.73;;
25163;SDS011;13440;50.860;13.662;2023-02-20T04:29:14;13.85;;;10.23;;
25163;SDS011;13440;50.860;13.662;2023-02-20T04:31:40;13.63;;;10.30;;
25163;SDS011;13440;50.860;13.662;2023-02-20T04:34:06;14.27;;;10.73;;
25163;SDS011;13440;50.860;13.662;2023-02-20T04:36:31;13.32;;;10.77;;
25163;SDS011;13440;50.860;13.662;2023-02-20T04:38:58;12.30;;;10.15;;
25163;SDS011;13440;50.860;13.662;2023-02-20T04:41:27;13.50;;;10.60;;
25163;SDS011;13440;50.860;13.662;2023-02-20T04:43:53;14.88;;;11.48;;
25163;SDS011;13440;50.860;13.662;2023-02-20T04:46:38;14.90;;;11.55;;
25163;SDS011;13440;50.860;13.662;2023-02-20T04:49:03;16.50;;;10.82;;
25163;SDS011;13440;50.860;13.662;2023-02-20T04:51:29;15.13;;;11.45;;
25163;SDS011;13440;50.860;13.662;2023-02-20T04:53:54;17.30;;;11.07;;
25163;SDS011;13440;50.860;13.662;2023-02-20T04:56:19;15.85;;;11.43;;
25163;SDS011;13440;50.860;13.662;2023-02-20T04:58:45;14.52;;;10.35;;
25163;SDS011;13440;50.860;13.662;2023-02-20T05:01:16;13.48;;;9.52;;
25163;SDS011;13440;50.860;13.662;2023-02-20T05:03:41;13.30;;;9.33;;
25163;SDS011;13440;50.860;13.662;2023-02-20T05:06:07;13.57;;;9.27;;
25163;SDS011;13440;50.860;13.662;2023-02-20T05:08:32;14.52;;;9.38;;
25163;SDS011;13440;50.860;13.662;2023-02-20T05:10:57;13.90;;;9.02;;
25163;SDS011;13440;50.860;13.662;2023-02-20T05:13:22;13.93;;;9.40;;
25163;SDS011;13440;50.860;13.662;2023-02-20T05:15:47;14.20;;;9.07;;
25163;SDS011;13440;50.860;13.662;2023-02-20T05:18:13;14.17;;;8.70;;
25163;SDS011;13440;50.860;13.662;2023-02-20T05:20:38;12.25;;;8.10;;
25163;SDS011;13440;50.860;13.662;2023-02-20T05:23:22;14.68;;;9.18;;
25163;SDS011;13440;50.860;13.662;2023-02-20T05:25:47;15.65;;;9.60;;
25163;SDS011;13440;50.860;13.662;2023-02-20T05:28:13;15.07;;;9.30;;
25163;SDS011;13440;50.860;13.662;2023-02-20T05:30:38;14.52;;;8.60;;
25163;SDS011;13440;50.860;13.662;2023-02-20T05:33:03;14.17;;;9.00;;
25163;SDS011;13440;50.860;13.662;2023-02-20T05:35:28;12.10;;;8.03;;
25163;SDS011;13440;50.860;13.662;2023-02-20T05:37:53;14.32;;;8.82;;
25163;SDS011;13440;50.860;13.662;2023-02-20T05:40:19;12.07;;;8.20;;
25163;SDS011;13440;50.860;13.662;2023-02-20T05:42:44;11.45;;;7.63;;
25163;SDS011;13440;50.860;13.662;2023-02-20T05:45:09;11.53;;;7.87;;
25163;SDS011;13440;50.860;13.662;2023-02-20T05:47:37;11.85;;;7.63;;
25163;SDS011;13440;50.860;13.662;2023-02-20T05:50:02;13.75;;;7.63;;
25163;SDS011;13440;50.860;13.662;2023-02-20T05:52:28;13.57;;;8.25;;
25163;SDS011;13440;50.860;13.662;2023-02-20T05:54:53;13.45;;;8.45;;
25163;SDS011;13440;50.860;13.662;2023-02-20T05:57:18;14.10;;;9.05;;
25163;SDS011;13440;50.860;13.662;2023-02-20T05:59:43;14.68;;;8.73;;
25163;SDS011;13440;50.860;13.662;2023-02-20T06:02:09;14.00;;;8.57;;
25163;SDS011;13440;50.860;13.662;2023-02-20T06:04:34;15.20;;;8.40;;
25163;SDS011;13440;50.860;13.662;2023-02-20T06:06:59;13.60;;;8.80;;
25163;SDS011;13440;50.860;13.662;2023-02-20T06:09:24;12.63;;;7.53;;
25163;SDS011;13440;50.860;13.662;2023-02-20T06:11:50;12.83;;;7.83;;
25163;SDS011;13440;50.860;13.662;2023-02-20T06:14:16;12.30;;;7.85;;
25163;SDS011;13440;50.860;13.662;2023-02-20T06:16:43;13.65;;;8.68;;
25163;SDS011;13440;50.860;13.662;2023-02-20T06:19:08;12.55;;;8.43;;
25163;SDS011;13440;50.860;13.662;2023-02-20T06:21:33;13.37;;;8.40;;
25163;SDS011;13440;50.860;13.662;2023-02-20T06:24:00;13.43;;;8.73;;
25163;SDS011;13440;50.860;13.662;2023-02-20T06:26:25;11.60;;;7.97;;
25163;SDS011;13440;50.860;13.662;2023-02-20T06:28:50;14.63;;;8.63;;
25163;SDS011;13440;50.860;13.662;2023-02-20T06:31:25;13.80;;;8.70;;
25163;SDS011;13440;50.860;13.662;2023-02-20T06:33:51;15.13;;;9.18;;
25163;SDS011;13440;50.860;13.662;2023-02-20T06:36:21;13.45;;;8.75;;
25163;SDS011;13440;50.860;13.662;2023-02-20T06:38:46;13.27;;;8.18;;
25163;SDS011;13440;50.860;13.662;2023-02-20T06:41:11;12.15;;;8.40;;
25163;SDS011;13440;50.860;13.662;2023-02-20T06:43:36;11.70;;;8.05;;
25163;SDS011;13440;50.860;13.662;2023-02-20T06:46:02;15.43;;;8.87;;
25163;SDS011;13440;50.860;13.662;2023-02-20T06:48:27;13.38;;;7.63;;
25163;SDS011;13440;50.860;13.662;2023-02-20T06:50:52;10.90;;;7.37;;
25163;SDS011;13440;50.860;13.662;2023-02-20T06:53:20;10.65;;;7.30;;
25163;SDS011;13440;50.860;13.662;2023-02-20T06:55:45;10.68;;;7.50;;
25163;SDS011;13440;50.860;13.662;2023-02-20T06:58:10;11.93;;;8.07;;
25163;SDS011;13440;50.860;13.662;2023-02-20T07:00:35;11.10;;;6.63;;
25163;SDS011;13440;50.860;13.662;2023-02-20T07:03:01;10.40;;;7.13;;
25163;SDS011;13440;50.860;13.662;2023-02-20T07:05:26;9.80;;;6.53;;
25163;SDS011;13440;50.860;13.662;2023-02-20T07:07:52;8.48;;;6.15;;
25163;SDS011;13440;50.860;13.662;2023-02-20T07:10:18;8.77;;;6.23;;
25163;SDS011;13440;50.860;13.662;2023-02-20T07:12:43;8.17;;;6.03;;
25163;SDS011;13440;50.860;13.662;2023-02-20T07:15:09;8.90;;;6.00;;
25163;SDS011;13440;50.860;13.662;2023-02-20T07:17:35;7.45;;;5.78;;
25163;SDS011;13440;50.860;13.662;2023-02-20T07:20:00;6.90;;;5.35;;
25163;SDS011;13440;50.860;13.662;2023-02-20T07:22:25;7.53;;;5.05;;
25163;SDS011;13440;50.860;13.662;2023-02-20T07:24:51;16.83;;;9.60;;
25163;SDS011;13440;50.860;13.662;2023-02-20T07:27:16;7.45;;;4.78;;
25163;SDS011;13440;50.860;13.662;2023-02-20T07:29:46;5.80;;;4.40;;
25163;SDS011;13440;50.860;13.662;2023-02-20T07:32:12;7.30;;;4.72;;
25163;SDS011;13440;50.860;13.662;2023-02-20T07:34:37;7.05;;;4.88;;
25163;SDS011;13440;50.860;13.662;2023-02-20T07:37:02;6.32;;;4.53;;
25163;SDS011;13440;50.860;13.662;2023-02-20T07:39:28;5.97;;;4.23;;
25163;SDS011;13440;50.860;13.662;2023-02-20T07:41:54;5.35;;;4.50;;
25163;SDS011;13440;50.860;13.662;2023-02-20T07:44:43;6.70;;;4.55;;
25163;SDS011;13440;50.860;13.662;2023-02-20T07:47:11;7.10;;;4.60;;
25163;SDS011;13440;50.860;13.662;2023-02-20T07:49:36;6.18;;;4.90;;
25163;SDS011;13440;50.860;13.662;2023-02-20T07:52:01;6.10;;;4.83;;
25163;SDS011;13440;50.860;13.662;2023-02-20T07:54:26;6.65;;;4.97;;
25163;SDS011;13440;50.860;13.662;2023-02-20T07:56:52;6.75;;;5.30;;
25163;SDS011;13440;50.860;13.662;2023-02-20T07:59:18;8.48;;;6.70;;
25163;SDS011;13440;50.860;13.662;2023-02-20T08:01:43;6.93;;;5.40;;
25163;SDS011;13440;50.860;13.662;2023-02-20T08:04:08;9.27;;;6.10;;
25163;SDS011;13440;50.860;13.662;2023-02-20T08:06:33;8.40;;;5.78;;
25163;SDS011;13440;50.860;13.662;2023-02-20T08:08:59;7.85;;;6.38;;
25163;SDS011;13440;50.860;13.662;2023-02-20T08:11:24;7.83;;;5.93;;
25163;SDS011;13440;50.860;13.662;2023-02-20T08:13:49;8.48;;;5.93;;
25163;SDS011;13440;50.860;13.662;2023-02-20T08:16:15;8.32;;;5.70;;
25163;SDS011;13440;50.860;13.662;2023-02-20T08:18:40;8.93;;;6.47;;
25163;SDS011;13440;50.860;13.662;2023-02-20T08:21:05;11.07;;;6.63;;
25163;SDS011;13440;50.860;13.662;2023-02-20T08:23:30;7.87;;;5.93;;
25163;SDS011;13440;50.860;13.662;2023-02-20T08:25:55;8.00;;;6.32;;
25163;SDS011;13440;50.860;13.662;2023-02-20T08:28:21;8.15;;;6.30;;
25163;SDS011;13440;50.860;13.662;2023-02-20T08:30:46;10.63;;;6.50;;
25163;SDS011;13440;50.860;13.662;2023-02-20T08:33:12;7.07;;;5.93;;
25163;SDS011;13440;50.860;13.662;2023-02-20T08:35:37;9.23;;;5.68;;
25163;SDS011;13440;50.860;13.662;2023-02-20T08:38:03;6.65;;;5.25;;
25163;SDS011;13440;50.860;13.662;2023-02-20T08:40:29;6.43;;;4.70;;
25163;SDS011;13440;50.860;13.662;2023-02-20T08:42:54;5.43;;;4.50;;
25163;SDS011;13440;50.860;13.662;2023-02-20T08:45:19;5.22;;;4.43;;
25163;SDS011;13440;50.860;13.662;2023-02-20T08:47:45;5.47;;;4.50;;
25163;SDS011;13440;50.860;13.662;2023-02-20T08:50:10;4.78;;;3.80;;
25163;SDS011;13440;50.860;13.662;2023-02-20T08:52:35;4.10;;;3.70;;
25163;SDS011;13440;50.860;13.662;2023-02-20T08:55:00;4.40;;;3.87;;
25163;SDS011;13440;50.860;13.662;2023-02-20T08:57:26;4.63;;;3.37;;
25163;SDS011;13440;50.860;13.662;2023-02-20T08:59:51;3.90;;;3.50;;
25163;SDS011;13440;50.860;13.662;2023-02-20T09:02:17;4.37;;;3.67;;
25163;SDS011;13440;50.860;13.662;2023-02-20T09:04:43;4.97;;;3.40;;
25163;SDS011;13440;50.860;13.662;2023-02-20T09:07:09;3.60;;;3.20;;
25163;SDS011;13440;50.860;13.662;2023-02-20T09:09:35;3.42;;;2.90;;
25163;SDS011;13440;50.860;13.662;2023-02-20T09:12:00;3.95;;;2.97;;
25163;SDS011;13440;50.860;13.662;2023-02-20T09:14:25;5.37;;;3.40;;
25163;SDS011;13440;50.860;13.662;2023-02-20T09:16:51;3.80;;;2.78;;
25163;SDS011;13440;50.860;13.662;2023-02-20T09:19:16;3.53;;;2.70;;
25163;SDS011;13440;50.860;13.662;2023-02-20T09:21:44;3.33;;;2.53;;
25163;SDS011;13440;50.860;13.662;2023-02-20T09:24:09;3.10;;;2.80;;
25163;SDS011;13440;50.860;13.662;2023-02-20T09:26:34;3.95;;;2.72;;
25163;SDS011;13440;50.860;13.662;2023-02-20T09:29:00;3.30;;;2.37;;
25163;SDS011;13440;50.860;13.662;2023-02-20T09:31:25;3.08;;;2.75;;
25163;SDS011;13440;50.860;13.662;2023-02-20T09:33:50;3.25;;;2.83;;
25163;SDS011;13440;50.860;13.662;2023-02-20T09:36:15;3.13;;;2.30;;
25163;SDS011;13440;50.860;13.662;2023-02-20T09:38:41;3.83;;;2.80;;
25163;SDS011;13440;50.860;13.662;2023-02-20T09:41:09;4.47;;;2.73;;
25163;SDS011;13440;50.860;13.662;2023-02-20T09:48:45;4.97;;;2.80;;
25163;SDS011;13440;50.860;13.662;2023-02-20T09:51:15;5.68;;;3.63;;
25163;SDS011;13440;50.860;13.662;2023-02-20T09:56:29;6.30;;;3.05;;
25163;SDS011;13440;50.860;13.662;2023-02-20T09:59:04;5.47;;;2.72;;
25163;SDS011;13440;50.860;13.662;2023-02-20T10:01:30;3.95;;;2.55;;
25163;SDS011;13440;50.860;13.662;2023-02-20T10:03:57;3.35;;;2.53;;
25163;SDS011;13440;50.860;13.662;2023-02-20T10:06:24;2.70;;;2.35;;
25163;SDS011;13440;50.860;13.662;2023-02-20T10:08:50;5.10;;;3.00;;
25163;SDS011;13440;50.860;13.662;2023-02-20T10:11:37;3.00;;;2.50;;
25163;SDS011;13440;50.860;13.662;2023-02-20T10:19:20;5.30;;;2.40;;
25163;SDS011;13440;50.860;13.662;2023-02-20T10:24:31;2.83;;;2.13;;
25163;SDS011;13440;50.860;13.662;2023-02-20T10:27:11;2.67;;;2.00;;
25163;SDS011;13440;50.860;13.662;2023-02-20T10:29:39;2.47;;;2.10;;
25163;SDS011;13440;50.860;13.662;2023-02-20T10:32:06;2.35;;;1.98;;
25163;SDS011;13440;50.860;13.662;2023-02-20T10:34:35;3.53;;;1.88;;
25163;SDS011;13440;50.860;13.662;2023-02-20T10:39:33;3.03;;;1.50;;
25163;SDS011;13440;50.860;13.662;2023-02-20T10:42:00;3.38;;;1.88;;
25163;SDS011;13440;50.860;13.662;2023-02-20T10:44:41;4.05;;;2.03;;
25163;SDS011;13440;50.860;13.662;2023-02-20T10:47:19;1.75;;;1.50;;
25163;SDS011;13440;50.860;13.662;2023-02-20T10:49:51;3.85;;;1.80;;
25163;SDS011;13440;50.860;13.662;2023-02-20T10:52:21;3.00;;;1.70;;
25163;SDS011;13440;50.860;13.662;2023-02-20T10:54:50;3.70;;;2.00;;
25163;SDS011;13440;50.860;13.662;2023-02-20T10:57:27;3.20;;;1.70;;
25163;SDS011;13440;50.860;13.662;2023-02-20T10:59:55;2.53;;;1.55;;
25163;SDS011;13440;50.860;13.662;2023-02-20T11:02:27;3.10;;;2.08;;
25163;SDS011;13440;50.860;13.662;2023-02-20T11:04:56;2.35;;;1.70;;
25163;SDS011;13440;50.860;13.662;2023-02-20T11:07:22;1.63;;;1.40;;
25163;SDS011;13440;50.860;13.662;2023-02-20T11:09:49;4.80;;;1.85;;
25163;SDS011;13440;50.860;13.662;2023-02-20T11:12:23;2.83;;;1.85;;
25163;SDS011;13440;50.860;13.662;2023-02-20T11:14:49;2.75;;;1.85;;
25163;SDS011;13440;50.860;13.662;2023-02-20T11:17:19;4.35;;;1.40;;
25163;SDS011;13440;50.860;13.662;2023-02-20T11:19:46;2.55;;;1.60;;
25163;SDS011;13440;50.860;13.662;2023-02-20T11:22:12;2.47;;;1.63;;
25163;SDS011;13440;50.860;13.662;2023-02-20T11:24:38;2.30;;;1.80;;
25163;SDS011;13440;50.860;13.662;2023-02-20T11:27:10;3.03;;;1.85;;
25163;SDS011;13440;50.860;13.662;2023-02-20T11:32:16;2.37;;;1.80;;
25163;SDS011;13440;50.860;13.662;2023-02-20T11:34:46;2.63;;;1.65;;
25163;SDS011;13440;50.860;13.662;2023-02-20T11:37:11;3.53;;;1.42;;
25163;SDS011;13440;50.860;13.662;2023-02-20T11:39:37;4.03;;;1.70;;
25163;SDS011;13440;50.860;13.662;2023-02-20T11:42:10;2.88;;;1.67;;
25163;SDS011;13440;50.860;13.662;2023-02-20T11:44:36;1.95;;;1.60;;
25163;SDS011;13440;50.860;13.662;2023-02-20T11:50:09;1.90;;;1.50;;
25163;SDS011;13440;50.860;13.662;2023-02-20T11:52:35;4.18;;;1.65;;
25163;SDS011;13440;50.860;13.662;2023-02-20T11:55:10;2.70;;;1.67;;
25163;SDS011;13440;50.860;13.662;2023-02-20T11:57:37;1.85;;;1.48;;
25163;SDS011;13440;50.860;13.662;2023-02-20T12:00:07;2.15;;;1.48;;
25163;SDS011;13440;50.860;13.662;2023-02-20T12:02:46;1.98;;;1.60;;
25163;SDS011;13440;50.860;13.662;2023-02-20T12:05:12;3.30;;;2.00;;
25163;SDS011;13440;50.860;13.662;2023-02-20T12:10:13;2.45;;;1.10;;
25163;SDS011;13440;50.860;13.662;2023-02-20T12:12:39;3.75;;;1.40;;
25163;SDS011;13440;50.860;13.662;2023-02-20T12:15:10;3.47;;;1.20;;
25163;SDS011;13440;50.860;13.662;2023-02-20T12:20:17;2.10;;;1.40;;
25163;SDS011;13440;50.860;13.662;2023-02-20T12:23:00;3.22;;;1.20;;
25163;SDS011;13440;50.860;13.662;2023-02-20T12:31:03;3.67;;;1.10;;
25163;SDS011;13440;50.860;13.662;2023-02-20T12:38:26;2.13;;;1.20;;
25163;SDS011;13440;50.860;13.662;2023-02-20T12:45:55;1.60;;;1.10;;
25163;SDS011;13440;50.860;13.662;2023-02-20T12:50:58;1.97;;;0.93;;
25163;SDS011;13440;50.860;13.662;2023-02-20T12:53:30;1.80;;;1.15;;
25163;SDS011;13440;50.860;13.662;2023-02-20T12:58:30;1.83;;;1.10;;
25163;SDS011;13440;50.860;13.662;2023-02-20T13:01:00;11.43;;;6.35;;
25163;SDS011;13440;50.860;13.662;2023-02-20T13:03:41;4.10;;;2.15;;
25163;SDS011;13440;50.860;13.662;2023-02-20T13:06:08;4.18;;;2.08;;
25163;SDS011;13440;50.860;13.662;2023-02-20T13:16:23;3.25;;;1.35;;
25163;SDS011;13440;50.860;13.662;2023-02-20T13:18:53;2.78;;;1.48;;
25163;SDS011;13440;50.860;13.662;2023-02-20T13:21:22;4.03;;;1.30;;
25163;SDS011;13440;50.860;13.662;2023-02-20T13:23:48;5.70;;;1.40;;
25163;SDS011;13440;50.860;13.662;2023-02-20T13:28:51;2.58;;;1.30;;
25163;SDS011;13440;50.860;13.662;2023-02-20T13:33:44;1.85;;;1.27;;
25163;SDS011;13440;50.860;13.662;2023-02-20T13:36:16;2.78;;;1.30;;
25163;SDS011;13440;50.860;13.662;2023-02-20T13:38:42;2.72;;;1.20;;
25163;SDS011;13440;50.860;13.662;2023-02-20T13:41:33;1.95;;;1.30;;
25163;SDS011;13440;50.860;13.662;2023-02-20T13:55:04;1.67;;;1.20;;
25163;SDS011;13440;50.860;13.662;2023-02-20T14:02:40;2.70;;;1.20;;
25163;SDS011;13440;50.860;13.662;2023-02-20T14:05:05;3.70;;;1.35;;
25163;SDS011;13440;50.860;13.662;2023-02-20T14:10:01;2.45;;;1.38;;
25163;SDS011;13440;50.860;13.662;2023-02-20T14:12:26;2.72;;;1.30;;
25163;SDS011;13440;50.860;13.662;2023-02-20T14:14:52;2.80;;;1.47;;
25163;SDS011;13440;50.860;13.662;2023-02-20T14:17:18;2.17;;;1.27;;
25163;SDS011;13440;50.860;13.662;2023-02-20T14:19:45;2.03;;;1.20;;
25163;SDS011;13440;50.860;13.662;2023-02-20T14:27:23;2.90;;;1.20;;
25163;SDS011;13440;50.860;13.662;2023-02-20T14:29:53;1.98;;;1.05;;
25163;SDS011;13440;50.860;13.662;2023-02-20T14:32:27;1.80;;;1.10;;
25163;SDS011;13440;50.860;13.662;2023-02-20T14:34:55;2.08;;;1.17;;
25163;SDS011;13440;50.860;13.662;2023-02-20T14:39:56;2.00;;;1.30;;
25163;SDS011;13440;50.860;13.662;2023-02-20T14:42:24;1.63;;;0.95;;
25163;SDS011;13440;50.860;13.662;2023-02-20T14:44:50;1.77;;;1.20;;
25163;SDS011;13440;50.860;13.662;2023-02-20T14:47:17;3.28;;;1.30;;
25163;SDS011;13440;50.860;13.662;2023-02-20T14:49:42;2.05;;;1.08;;
25163;SDS011;13440;50.860;13.662;2023-02-20T14:54:40;5.05;;;2.75;;
25163;SDS011;13440;50.860;13.662;2023-02-20T14:57:05;5.70;;;2.75;;
25163;SDS011;13440;50.860;13.662;2023-02-20T14:59:32;3.83;;;1.75;;
25163;SDS011;13440;50.860;13.662;2023-02-20T15:01:59;3.95;;;1.35;;
25163;SDS011;13440;50.860;13.662;2023-02-20T15:04:25;2.47;;;1.05;;
25163;SDS011;13440;50.860;13.662;2023-02-20T15:06:51;3.28;;;1.30;;
25163;SDS011;13440;50.860;13.662;2023-02-20T15:09:17;2.92;;;1.20;;
25163;SDS011;13440;50.860;13.662;2023-02-20T15:11:50;2.08;;;1.10;;
25163;SDS011;13440;50.860;13.662;2023-02-20T15:14:20;2.78;;;1.13;;
25163;SDS011;13440;50.860;13.662;2023-02-20T15:16:46;3.25;;;1.70;;
25163;SDS011;13440;50.860;13.662;2023-02-20T15:19:21;2.92;;;1.20;;
25163;SDS011;13440;50.860;13.662;2023-02-20T15:21:56;3.78;;;1.30;;
25163;SDS011;13440;50.860;13.662;2023-02-20T15:27:10;2.17;;;1.40;;
25163;SDS011;13440;50.860;13.662;2023-02-20T15:29:36;5.45;;;1.30;;
25163;SDS011;13440;50.860;13.662;2023-02-20T15:32:03;3.33;;;1.42;;
25163;SDS011;13440;50.860;13.662;2023-02-20T15:34:30;4.50;;;1.50;;
25163;SDS011;13440;50.860;13.662;2023-02-20T15:36:58;4.43;;;1.52;;
25163;SDS011;13440;50.860;13.662;2023-02-20T15:39:23;3.03;;;1.38;;
25163;SDS011;13440;50.860;13.662;2023-02-20T15:41:48;3.65;;;1.52;;
25163;SDS011;13440;50.860;13.662;2023-02-20T15:44:14;2.83;;;1.50;;
25163;SDS011;13440;50.860;13.662;2023-02-20T15:46:40;2.80;;;1.40;;
25163;SDS011;13440;50.860;13.662;2023-02-20T15:49:05;3.60;;;1.50;;
25163;SDS011;13440;50.860;13.662;2023-02-20T15:51:31;10.82;;;1.75;;
25163;SDS011;13440;50.860;13.662;2023-02-20T15:53:57;3.10;;;1.50;;
25163;SDS011;13440;50.860;13.662;2023-02-20T15:56:30;4.80;;;3.42;;
25163;SDS011;13440;50.860;13.662;2023-02-20T15:58:56;4.30;;;1.95;;
25163;SDS011;13440;50.860;13.662;2023-02-20T16:01:22;2.88;;;1.75;;
25163;SDS011;13440;50.860;13.662;2023-02-20T16:03:47;5.03;;;2.13;;
25163;SDS011;13440;50.860;13.662;2023-02-20T16:06:13;3.65;;;1.70;;
25163;SDS011;13440;50.860;13.662;2023-02-20T16:08:38;2.70;;;1.73;;
25163;SDS011;13440;50.860;13.662;2023-02-20T16:11:03;4.83;;;2.00;;
25163;SDS011;13440;50.860;13.662;2023-02-20T16:13:35;4.80;;;1.98;;
25163;SDS011;13440;50.860;13.662;2023-02-20T16:16:05;2.90;;;1.80;;
25163;SDS011;13440;50.860;13.662;2023-02-20T16:18:31;4.95;;;1.92;;
25163;SDS011;13440;50.860;13.662;2023-02-20T16:20:56;4.47;;;1.90;;
25163;SDS011;13440;50.860;13.662;2023-02-20T16:23:22;7.50;;;2.10;;
25163;SDS011;13440;50.860;13.662;2023-02-20T16:25:47;2.33;;;1.92;;
25163;SDS011;13440;50.860;13.662;2023-02-20T16:28:13;4.63;;;2.35;;